sensor_id;sensor_type;location;lat;lon;timestamp;pressure;altitude;pressure_sealevel;temperature;humidity
52927;BME280;40783;49.710;8.842;2023-03-19T00:01:19;98780.63;;;9.02;100.00
52927;BME280;40783;49.710;8.842;2023-03-19T00:03:45;98786.50;;;9.06;100.00
52927;BME280;40783;49.710;8.842;2023-03-19T00:06:13;98785.34;;;9.09;100.00
52927;BME280;40783;49.710;8.842;2023-03-19T00:08:39;98769.69;;;9.14;100.00
52927;BME280;40783;49.710;8.842;2023-03-19T00:11:06;98781.03;;;9.16;100.00
52927;BME280;40783;49.710;8.842;2023-03-19T00:13:34;98778.75;;;9.21;100.00
52927;BME280;40783;49.710;8.842;2023-03-19T00:16:00;98776.75;;;9.23;100.00
52927;BME280;40783;49.710;8.842;2023-03-19T00:18:25;98780.09;;;9.25;100.00
52927;BME280;40783;49.710;8.842;2023-03-19T00:20:52;98780.41;;;9.22;100.00
52927;BME280;40783;49.710;8.842;2023-03-19T00:23:18;98777.28;;;9.27;100.00
52927;BME280;40783;49.710;8.842;2023-03-19T00:25:43;98790.78;;;9.25;100.00
52927;BME280;40783;49.710;8.842;2023-03-19T00:28:08;98791.63;;;9.26;100.00
52927;BME280;40783;49.710;8.842;2023-03-19T00:30:33;98791.09;;;9.22;100.00
52927;BME280;40783;49.710;8.842;2023-03-19T00:33:01;98785.75;;;9.22;100.00
52927;BME280;40783;49.710;8.842;2023-03-19T00:35:26;98788.09;;;9.25;100.00
52927;BME280;40783;49.710;8.842;2023-03-19T00:37:52;98789.78;;;9.26;100.00
52927;BME280;40783;49.710;8.842;2023-03-19T00:40:17;98785.13;;;9.28;100.00
52927;BME280;40783;49.710;8.842;2023-03-19T00:42:45;98785.13;;;9.28;100.00
52927;BME280;40783;49.710;8.842;2023-03-19T00:45:11;98781.13;;;9.32;100.00
52927;BME280;40783;49.710;8.842;2023-03-19T00:47:37;98781.13;;;9.32;100.00
52927;BME280;40783;49.710;8.842;2023-03-19T00:50:02;98793.81;;;9.30;100.00
52927;BME280;40783;49.710;8.842;2023-03-19T00:52:28;98789.09;;;9.24;100.00
52927;BME280;40783;49.710;8.842;2023-03-19T00:54:53;98787.41;;;9.23;100.00
52927;BME280;40783;49.710;8.842;2023-03-19T00:57:18;98790.78;;;9.25;100.00
52927;BME280;40783;49.710;8.842;2023-03-19T00:59:43;98787.63;;;9.30;100.00
52927;BME280;40783;49.710;8.842;2023-03-19T01:02:09;98791.25;;;9.20;100.00
52927;BME280;40783;49.710;8.842;2023-03-19T01:04:34;98792.88;;;9.13;100.00
52927;BME280;40783;49.710;8.842;2023-03-19T01:06:59;98793.56;;;9.15;100.00
52927;BME280;40783;49.710;8.842;2023-03-19T01:09:29;98790.25;;;9.22;100.00
52927;BME280;40783;49.710;8.842;2023-03-19T01:11:54;98799.03;;;9.14;100.00
52927;BME280;40783;49.710;8.842;2023-03-19T01:14:20;98795.06;;;9.18;100.00
52927;BME280;40783;49.710;8.842;2023-03-19T01:16:45;98795.44;;;9.23;100.00
52927;BME280;40783;49.710;8.842;2023-03-19T01:19:10;98800.63;;;9.25;100.00
52927;BME280;40783;49.710;8.842;2023-03-19T01:21:38;98793.38;;;9.17;100.00
52927;BME280;40783;49.710;8.842;2023-03-19T01:24:10;98799.03;;;9.14;100.00
52927;BME280;40783;49.710;8.842;2023-03-19T01:26:35;98773.63;;;9.01;100.00
52927;BME280;40783;49.710;8.842;2023-03-19T01:29:02;98776.97;;;9.03;100.00
52927;BME280;40783;49.710;8.842;2023-03-19T01:31:28;98769.88;;;8.86;100.00
52927;BME280;40783;49.710;8.842;2023-03-19T01:33:53;98768.50;;;8.82;100.00
52927;BME280;40783;49.710;8.842;2023-03-19T01:36:20;98775.84;;;8.80;100.00
52927;BME280;40783;49.710;8.842;2023-03-19T01:38:46;98771.44;;;8.70;100.00
52927;BME280;40783;49.710;8.842;2023-03-19T01:41:12;98769.81;;;8.78;100.00
52927;BME280;40783;49.710;8.842;2023-03-19T01:43:37;98761.81;;;8.78;100.00
52927;BME280;40783;49.710;8.842;2023-03-19T01:51:09;98770.19;;;8.83;100.00
52927;BME280;40783;49.710;8.842;2023-03-19T01:53:36;98779.13;;;8.73;100.00
52927;BME280;40783;49.710;8.842;2023-03-19T01:56:17;98779.50;;;8.79;100.00
52927;BME280;40783;49.710;8.842;2023-03-19T01:58:44;98789.03;;;8.63;100.00
52927;BME280;40783;49.710;8.842;2023-03-19T02:01:14;98781.56;;;8.67;100.00
52927;BME280;40783;49.710;8.842;2023-03-19T02:03:40;98785.25;;;8.66;100.00
52927;BME280;40783;49.710;8.842;2023-03-19T02:06:06;98781.03;;;8.63;100.00
52927;BME280;40783;49.710;8.842;2023-03-19T02:08:34;98783.94;;;8.52;100.00
52927;BME280;40783;49.710;8.842;2023-03-19T02:11:01;98782.19;;;8.42;100.00
52927;BME280;40783;49.710;8.842;2023-03-19T02:13:27;98783.69;;;8.45;100.00
52927;BME280;40783;49.710;8.842;2023-03-19T02:15:52;98785.91;;;8.50;100.00
52927;BME280;40783;49.710;8.842;2023-03-19T02:18:18;98784.09;;;8.50;100.00
52927;BME280;40783;49.710;8.842;2023-03-19T02:21:04;98781.66;;;8.57;100.00
52927;BME280;40783;49.710;8.842;2023-03-19T02:26:15;98785.63;;;8.53;100.00
52927;BME280;40783;49.710;8.842;2023-03-19T02:28:44;98777.78;;;8.51;100.00
52927;BME280;40783;49.710;8.842;2023-03-19T02:31:10;98779.97;;;8.56;100.00
52927;BME280;40783;49.710;8.842;2023-03-19T02:33:36;98784.63;;;8.54;100.00
52927;BME280;40783;49.710;8.842;2023-03-19T02:36:04;98790.63;;;8.56;100.00
52927;BME280;40783;49.710;8.842;2023-03-19T02:38:30;98786.16;;;8.56;100.00
52927;BME280;40783;49.710;8.842;2023-03-19T02:40:58;98794.28;;;8.55;100.00
52927;BME280;40783;49.710;8.842;2023-03-19T02:43:27;98797.69;;;8.47;100.00
52927;BME280;40783;49.710;8.842;2023-03-19T02:45:53;98790.50;;;8.39;100.00
52927;BME280;40783;49.710;8.842;2023-03-19T02:48:18;98803.13;;;8.37;100.00
52927;BME280;40783;49.710;8.842;2023-03-19T02:50:44;98806.31;;;8.23;100.00
52927;BME280;40783;49.710;8.842;2023-03-19T02:53:09;98807.38;;;8.30;100.00
52927;BME280;40783;49.710;8.842;2023-03-19T02:55:37;98803.56;;;8.32;100.00
52927;BME280;40783;49.710;8.842;2023-03-19T02:58:04;98802.06;;;8.30;100.00
52927;BME280;40783;49.710;8.842;2023-03-19T03:00:29;98802.56;;;8.34;100.00
52927;BME280;40783;49.710;8.842;2023-03-19T03:02:55;98809.75;;;8.33;100.00
52927;BME280;40783;49.710;8.842;2023-03-19T03:05:21;98808.28;;;8.39;100.00
52927;BME280;40783;49.710;8.842;2023-03-19T03:07:46;98805.88;;;8.45;100.00
52927;BME280;40783;49.710;8.842;2023-03-19T03:10:11;98803.59;;;8.51;100.00
52927;BME280;40783;49.710;8.842;2023-03-19T03:12:37;98800.38;;;8.47;100.00
52927;BME280;40783;49.710;8.842;2023-03-19T03:15:03;98795.97;;;8.56;100.00
52927;BME280;40783;49.710;8.842;2023-03-19T03:17:28;98803.28;;;8.54;100.00
52927;BME280;40783;49.710;8.842;2023-03-19T03:19:53;98800.47;;;8.55;100.00
52927;BME280;40783;49.710;8.842;2023-03-19T03:22:19;98804.88;;;8.46;100.00
52927;BME280;40783;49.710;8.842;2023-03-19T03:24:44;98805.94;;;8.54;100.00
52927;BME280;40783;49.710;8.842;2023-03-19T03:27:09;98807.00;;;8.61;100.00
52927;BME280;40783;49.710;8.842;2023-03-19T03:29:37;98807.25;;;8.50;100.00
52927;BME280;40783;49.710;8.842;2023-03-19T03:32:05;98822.09;;;8.52;100.00
52927;BME280;40783;49.710;8.842;2023-03-19T03:34:31;98820.63;;;8.58;100.00
52927;BME280;40783;49.710;8.842;2023-03-19T03:36:56;98815.00;;;8.61;100.00
52927;BME280;40783;49.710;8.842;2023-03-19T03:39:24;98819.13;;;8.55;100.00
52927;BME280;40783;49.710;8.842;2023-03-19T03:41:49;98809.97;;;8.58;100.00
52927;BME280;40783;49.710;8.842;2023-03-19T03:44:16;98827.50;;;8.60;100.00
52927;BME280;40783;49.710;8.842;2023-03-19T03:46:42;98820.41;;;8.69;100.00
52927;BME280;40783;49.710;8.842;2023-03-19T03:49:07;98817.13;;;8.75;100.00
52927;BME280;40783;49.710;8.842;2023-03-19T03:51:32;98816.66;;;8.80;100.00
52927;BME280;40783;49.710;8.842;2023-03-19T03:53:58;98819.84;;;8.84;100.00
52927;BME280;40783;49.710;8.842;2023-03-19T03:56:23;98819.84;;;8.84;100.00
52927;BME280;40783;49.710;8.842;2023-03-19T03:58:48;98818.19;;;8.83;100.00
52927;BME280;40783;49.710;8.842;2023-03-19T04:01:16;98818.19;;;8.83;100.00
52927;BME280;40783;49.710;8.842;2023-03-19T04:03:42;98823.50;;;8.83;100.00
52927;BME280;40783;49.710;8.842;2023-03-19T04:06:08;98822.53;;;8.84;100.00
52927;BME280;40783;49.710;8.842;2023-03-19T04:08:33;98817.03;;;8.85;100.00
52927;BME280;40783;49.710;8.842;2023-03-19T04:11:04;98817.19;;;8.84;100.00
52927;BME280;40783;49.710;8.842;2023-03-19T04:13:30;98824.44;;;8.73;100.00
52927;BME280;40783;49.710;8.842;2023-03-19T04:16:01;98817.75;;;8.69;100.00
52927;BME280;40783;49.710;8.842;2023-03-19T04:18:28;98825.66;;;8.61;100.00
52927;BME280;40783;49.710;8.842;2023-03-19T04:20:53;98828.41;;;8.51;100.00
52927;BME280;40783;49.710;8.842;2023-03-19T04:23:21;98835.25;;;8.54;100.00
52927;BME280;40783;49.710;8.842;2023-03-19T04:25:49;98833.44;;;8.54;100.00
52927;BME280;40783;49.710;8.842;2023-03-19T04:28:14;98831.84;;;8.61;100.00
52927;BME280;40783;49.710;8.842;2023-03-19T04:30:40;98836.56;;;8.68;100.00
52927;BME280;40783;49.710;8.842;2023-03-19T04:33:05;98832.59;;;8.72;100.00
52927;BME280;40783;49.710;8.842;2023-03-19T04:35:32;98832.44;;;8.73;100.00
52927;BME280;40783;49.710;8.842;2023-03-19T04:37:58;98838.16;;;8.79;100.00
52927;BME280;40783;49.710;8.842;2023-03-19T04:40:23;98836.16;;;8.81;100.00
52927;BME280;40783;49.710;8.842;2023-03-19T04:42:49;98835.47;;;8.79;100.00
52927;BME280;40783;49.710;8.842;2023-03-19T04:45:14;98837.53;;;8.85;100.00
52927;BME280;40783;49.710;8.842;2023-03-19T04:47:39;98837.22;;;8.88;100.00
52927;BME280;40783;49.710;8.842;2023-03-19T04:50:05;98829.81;;;9.00;100.00
52927;BME280;40783;49.710;8.842;2023-03-19T04:52:31;98842.66;;;9.04;100.00
52927;BME280;40783;49.710;8.842;2023-03-19T04:54:57;98837.38;;;9.13;100.00
52927;BME280;40783;49.710;8.842;2023-03-19T04:57:22;98839.78;;;9.24;100.00
52927;BME280;40783;49.710;8.842;2023-03-19T04:59:48;98844.13;;;9.25;100.00
52927;BME280;40783;49.710;8.842;2023-03-19T05:02:13;98853.97;;;9.25;100.00
52927;BME280;40783;49.710;8.842;2023-03-19T05:04:39;98863.13;;;9.22;100.00
52927;BME280;40783;49.710;8.842;2023-03-19T05:07:07;98856.28;;;9.19;100.00
52927;BME280;40783;49.710;8.842;2023-03-19T05:09:32;98859.41;;;9.15;100.00
52927;BME280;40783;49.710;8.842;2023-03-19T05:12:00;98858.03;;;9.11;100.00
52927;BME280;40783;49.710;8.842;2023-03-19T05:14:25;98856.69;;;9.06;100.00
52927;BME280;40783;49.710;8.842;2023-03-19T05:16:50;98865.66;;;9.05;100.00
52927;BME280;40783;49.710;8.842;2023-03-19T05:19:16;98862.31;;;9.03;100.00
52927;BME280;40783;49.710;8.842;2023-03-19T05:21:44;98865.66;;;9.05;100.00
52927;BME280;40783;49.710;8.842;2023-03-19T05:24:11;98859.34;;;9.06;100.00
52927;BME280;40783;49.710;8.842;2023-03-19T05:26:41;98868.03;;;9.09;100.00
52927;BME280;40783;49.710;8.842;2023-03-19T05:29:08;98861.38;;;9.13;100.00
52927;BME280;40783;49.710;8.842;2023-03-19T05:31:35;98863.06;;;9.14;100.00
52927;BME280;40783;49.710;8.842;2023-03-19T05:34:02;98871.22;;;9.12;100.00
52927;BME280;40783;49.710;8.842;2023-03-19T05:36:28;98875.63;;;8.95;100.00
52927;BME280;40783;49.710;8.842;2023-03-19T05:38:54;98878.53;;;8.84;100.00
52927;BME280;40783;49.710;8.842;2023-03-19T05:41:19;98875.59;;;8.77;100.00
52927;BME280;40783;49.710;8.842;2023-03-19T05:43:44;98874.09;;;8.74;100.00
52927;BME280;40783;49.710;8.842;2023-03-19T05:46:09;98882.78;;;8.76;100.00
52927;BME280;40783;49.710;8.842;2023-03-19T05:48:35;98883.69;;;8.67;100.00
52927;BME280;40783;49.710;8.842;2023-03-19T05:51:00;98890.69;;;8.68;100.00
52927;BME280;40783;49.710;8.842;2023-03-19T05:53:25;98879.44;;;8.74;100.00
52927;BME280;40783;49.710;8.842;2023-03-19T05:55:53;98875.25;;;8.72;100.00
52927;BME280;40783;49.710;8.842;2023-03-19T05:58:18;98884.75;;;8.74;100.00
52927;BME280;40783;49.710;8.842;2023-03-19T06:00:44;98890.31;;;8.81;100.00
52927;BME280;40783;49.710;8.842;2023-03-19T06:03:09;98894.81;;;8.81;100.00
52927;BME280;40783;49.710;8.842;2023-03-19T06:05:34;98900.53;;;8.86;100.00
52927;BME280;40783;49.710;8.842;2023-03-19T06:08:00;98910.72;;;8.90;100.00
52927;BME280;40783;49.710;8.842;2023-03-19T06:10:25;98900.59;;;8.94;100.00
52927;BME280;40783;49.710;8.842;2023-03-19T06:12:51;98905.94;;;8.94;100.00
52927;BME280;40783;49.710;8.842;2023-03-19T06:15:18;98905.63;;;8.97;100.00
52927;BME280;40783;49.710;8.842;2023-03-19T06:17:43;98912.00;;;9.04;100.00
52927;BME280;40783;49.710;8.842;2023-03-19T06:20:11;98918.72;;;9.09;100.00
52927;BME280;40783;49.710;8.842;2023-03-19T06:22:37;98913.75;;;9.14;100.00
52927;BME280;40783;49.710;8.842;2023-03-19T06:25:04;98924.50;;;9.22;100.00
52927;BME280;40783;49.710;8.842;2023-03-19T06:27:30;98922.03;;;9.29;100.00
52927;BME280;40783;49.710;8.842;2023-03-19T06:29:55;98925.25;;;9.32;100.00
52927;BME280;40783;49.710;8.842;2023-03-19T06:32:21;98926.59;;;9.37;100.00
52927;BME280;40783;49.710;8.842;2023-03-19T06:34:46;98925.59;;;9.38;100.00
52927;BME280;40783;49.710;8.842;2023-03-19T06:37:11;98933.63;;;9.38;100.00
52927;BME280;40783;49.710;8.842;2023-03-19T06:39:39;98928.41;;;9.36;100.00
52927;BME280;40783;49.710;8.842;2023-03-19T06:42:04;98926.97;;;9.42;100.00
52927;BME280;40783;49.710;8.842;2023-03-19T06:44:30;98924.50;;;9.48;100.00
52927;BME280;40783;49.710;8.842;2023-03-19T06:46:55;98930.91;;;9.56;100.00
52927;BME280;40783;49.710;8.842;2023-03-19T06:49:20;98932.25;;;9.60;100.00
52927;BME280;40783;49.710;8.842;2023-03-19T06:51:48;98925.75;;;9.62;100.00
52927;BME280;40783;49.710;8.842;2023-03-19T06:54:13;98923.41;;;9.59;100.00
52927;BME280;40783;49.710;8.842;2023-03-19T06:56:38;98914.06;;;9.63;100.00
52927;BME280;40783;49.710;8.842;2023-03-19T06:59:04;98930.38;;;9.52;100.00
52927;BME280;40783;49.710;8.842;2023-03-19T07:01:32;98920.03;;;9.49;100.00
52927;BME280;40783;49.710;8.842;2023-03-19T07:03:57;98926.03;;;9.51;100.00
52927;BME280;40783;49.710;8.842;2023-03-19T07:06:22;98934.88;;;9.52;100.00
52927;BME280;40783;49.710;8.842;2023-03-19T07:08:47;98934.03;;;9.51;100.00
52927;BME280;40783;49.710;8.842;2023-03-19T07:11:12;98940.00;;;9.45;100.00
52927;BME280;40783;49.710;8.842;2023-03-19T07:13:40;98945.34;;;9.45;100.00
52927;BME280;40783;49.710;8.842;2023-03-19T07:16:08;98946.34;;;9.44;100.00
52927;BME280;40783;49.710;8.842;2023-03-19T07:18:34;98945.91;;;9.57;100.00
52927;BME280;40783;49.710;8.842;2023-03-19T07:20:59;98945.13;;;9.64;100.00
52927;BME280;40783;49.710;8.842;2023-03-19T07:23:25;98939.03;;;9.80;100.00
52927;BME280;40783;49.710;8.842;2023-03-19T07:25:50;98938.63;;;9.93;100.00
52927;BME280;40783;49.710;8.842;2023-03-19T07:28:17;98945.38;;;10.06;100.00
52927;BME280;40783;49.710;8.842;2023-03-19T07:30:43;98950.25;;;10.19;100.00
52927;BME280;40783;49.710;8.842;2023-03-19T07:33:10;98947.13;;;10.32;100.00
52927;BME280;40783;49.710;8.842;2023-03-19T07:35:35;98954.88;;;10.43;100.00
52927;BME280;40783;49.710;8.842;2023-03-19T07:38:03;98945.91;;;10.52;100.00
52927;BME280;40783;49.710;8.842;2023-03-19T07:40:28;98948.25;;;10.56;100.00
52927;BME280;40783;49.710;8.842;2023-03-19T07:42:53;98954.94;;;10.60;100.00
52927;BME280;40783;49.710;8.842;2023-03-19T07:45:19;98949.59;;;10.60;100.00
52927;BME280;40783;49.710;8.842;2023-03-19T07:47:44;98954.25;;;10.66;100.00
52927;BME280;40783;49.710;8.842;2023-03-19T07:50:09;98955.59;;;10.70;100.00
52927;BME280;40783;49.710;8.842;2023-03-19T07:52:35;98952.97;;;10.78;100.00
52927;BME280;40783;49.710;8.842;2023-03-19T07:55:00;98961.66;;;10.80;100.00
52927;BME280;40783;49.710;8.842;2023-03-19T07:57:28;98954.47;;;10.89;100.00
52927;BME280;40783;49.710;8.842;2023-03-19T07:59:53;98959.00;;;10.89;100.00
52927;BME280;40783;49.710;8.842;2023-03-19T08:02:21;98954.00;;;11.02;100.00
52927;BME280;40783;49.710;8.842;2023-03-19T08:04:46;98957.84;;;11.08;100.00
52927;BME280;40783;49.710;8.842;2023-03-19T08:07:11;98958.00;;;11.14;100.00
52927;BME280;40783;49.710;8.842;2023-03-19T08:09:38;98956.00;;;11.17;100.00
52927;BME280;40783;49.710;8.842;2023-03-19T08:12:09;98952.81;;;11.13;100.00
52927;BME280;40783;49.710;8.842;2023-03-19T08:14:34;98959.34;;;11.19;100.00
52927;BME280;40783;49.710;8.842;2023-03-19T08:17:00;98962.69;;;11.21;100.00
52927;BME280;40783;49.710;8.842;2023-03-19T08:19:25;98958.69;;;11.25;98.54
52927;BME280;40783;49.710;8.842;2023-03-19T08:21:50;98958.34;;;11.36;95.64
52927;BME280;40783;49.710;8.842;2023-03-19T08:24:15;98958.34;;;11.45;95.32
52927;BME280;40783;49.710;8.842;2023-03-19T08:26:41;98964.03;;;11.58;97.81
52927;BME280;40783;49.710;8.842;2023-03-19T08:29:06;98958.66;;;11.58;94.27
52927;BME280;40783;49.710;8.842;2023-03-19T08:31:32;98958.34;;;11.61;97.10
52927;BME280;40783;49.710;8.842;2023-03-19T08:33:57;98969.72;;;11.55;95.28
52927;BME280;40783;49.710;8.842;2023-03-19T08:36:28;98966.84;;;11.65;94.57
52927;BME280;40783;49.710;8.842;2023-03-19T08:38:53;98965.69;;;11.59;93.55
52927;BME280;40783;49.710;8.842;2023-03-19T08:41:19;98971.06;;;11.59;92.09
52927;BME280;40783;49.710;8.842;2023-03-19T08:43:44;98966.72;;;11.58;94.00
52927;BME280;40783;49.710;8.842;2023-03-19T08:46:09;98980.59;;;11.62;92.38
52927;BME280;40783;49.710;8.842;2023-03-19T08:48:35;98965.03;;;11.65;92.31
52927;BME280;40783;49.710;8.842;2023-03-19T08:51:01;98964.50;;;11.78;91.59
52927;BME280;40783;49.710;8.842;2023-03-19T08:53:27;98973.97;;;11.97;91.80
52927;BME280;40783;49.710;8.842;2023-03-19T08:55:53;98968.63;;;12.14;90.57
52927;BME280;40783;49.710;8.842;2023-03-19T08:58:18;98968.53;;;12.30;88.03
52927;BME280;40783;49.710;8.842;2023-03-19T09:00:44;98970.75;;;12.58;91.60
52927;BME280;40783;49.710;8.842;2023-03-19T09:03:09;98966.56;;;12.87;91.11
52927;BME280;40783;49.710;8.842;2023-03-19T09:05:34;98972.84;;;13.03;84.25
52927;BME280;40783;49.710;8.842;2023-03-19T09:07:59;98966.59;;;13.26;86.13
52927;BME280;40783;49.710;8.842;2023-03-19T09:10:25;98973.19;;;13.46;83.19
52927;BME280;40783;49.710;8.842;2023-03-19T09:12:53;98968.34;;;13.65;82.54
52927;BME280;40783;49.710;8.842;2023-03-19T09:15:18;98974.59;;;13.57;83.01
52927;BME280;40783;49.710;8.842;2023-03-19T09:17:43;98968.75;;;13.54;78.27
52927;BME280;40783;49.710;8.842;2023-03-19T09:20:11;98969.06;;;13.35;80.31
52927;BME280;40783;49.710;8.842;2023-03-19T09:22:36;98974.59;;;13.34;79.55
52927;BME280;40783;49.710;8.842;2023-03-19T09:25:04;98979.22;;;13.25;81.61
52927;BME280;40783;49.710;8.842;2023-03-19T09:27:34;98983.22;;;13.29;81.21
52927;BME280;40783;49.710;8.842;2023-03-19T09:30:02;98993.84;;;13.23;80.80
52927;BME280;40783;49.710;8.842;2023-03-19T09:32:28;98978.31;;;13.33;78.86
52927;BME280;40783;49.710;8.842;2023-03-19T09:34:53;98979.69;;;13.29;79.49
52927;BME280;40783;49.710;8.842;2023-03-19T09:37:21;98977.47;;;13.32;81.41
52927;BME280;40783;49.710;8.842;2023-03-19T09:39:46;98977.59;;;13.39;80.78
52927;BME280;40783;49.710;8.842;2023-03-19T09:44:37;98977.13;;;13.59;79.77
52927;BME280;40783;49.710;8.842;2023-03-19T09:47:07;98976.97;;;13.75;80.56
52927;BME280;40783;49.710;8.842;2023-03-19T09:49:39;98971.31;;;13.85;80.84
52927;BME280;40783;49.710;8.842;2023-03-19T09:52:24;98968.25;;;14.03;76.88
52927;BME280;40783;49.710;8.842;2023-03-19T09:54:58;98968.81;;;14.14;77.90
52927;BME280;40783;49.710;8.842;2023-03-19T09:57:24;98966.69;;;14.24;75.95
52927;BME280;40783;49.710;8.842;2023-03-19T09:59:53;98964.66;;;14.26;77.70
52927;BME280;40783;49.710;8.842;2023-03-19T10:12:41;98968.56;;;14.60;73.15
52927;BME280;40783;49.710;8.842;2023-03-19T10:15:30;98966.34;;;14.79;77.00
52927;BME280;40783;49.710;8.842;2023-03-19T10:18:16;98965.66;;;14.92;70.91
52927;BME280;40783;49.710;8.842;2023-03-19T10:20:50;98970.72;;;15.02;70.37
52927;BME280;40783;49.710;8.842;2023-03-19T10:23:36;98970.88;;;14.78;67.71
52927;BME280;40783;49.710;8.842;2023-03-19T10:26:08;98961.19;;;14.84;70.17
52927;BME280;40783;49.710;8.842;2023-03-19T10:28:35;98963.44;;;14.80;68.18
52927;BME280;40783;49.710;8.842;2023-03-19T10:31:04;98958.00;;;14.74;66.84
52927;BME280;40783;49.710;8.842;2023-03-19T10:33:35;98953.44;;;14.74;69.80
52927;BME280;40783;49.710;8.842;2023-03-19T10:36:04;98954.78;;;14.85;69.76
52927;BME280;40783;49.710;8.842;2023-03-19T10:38:31;98951.59;;;14.96;67.82
52927;BME280;40783;49.710;8.842;2023-03-19T10:43:41;98943.06;;;14.71;67.72
52927;BME280;40783;49.710;8.842;2023-03-19T10:46:13;98952.88;;;14.79;68.27
52927;BME280;40783;49.710;8.842;2023-03-19T10:48:43;98946.84;;;14.77;65.90
52927;BME280;40783;49.710;8.842;2023-03-19T10:51:09;98955.63;;;14.86;65.89
52927;BME280;40783;49.710;8.842;2023-03-19T10:53:38;98944.53;;;14.95;65.60
52927;BME280;40783;49.710;8.842;2023-03-19T10:58:29;98950.69;;;14.89;62.19
52927;BME280;40783;49.710;8.842;2023-03-19T11:00:56;98956.88;;;14.83;64.10
52927;BME280;40783;49.710;8.842;2023-03-19T11:06:02;98949.28;;;14.72;64.72
52927;BME280;40783;49.710;8.842;2023-03-19T11:08:28;98949.53;;;14.98;65.55
52927;BME280;40783;49.710;8.842;2023-03-19T11:10:53;98952.13;;;15.07;65.24
52927;BME280;40783;49.710;8.842;2023-03-19T11:13:22;98959.13;;;15.01;64.86
52927;BME280;40783;49.710;8.842;2023-03-19T11:15:53;98965.47;;;15.15;65.78
52927;BME280;40783;49.710;8.842;2023-03-19T11:18:26;98953.97;;;15.28;65.53
52927;BME280;40783;49.710;8.842;2023-03-19T11:23:21;98951.72;;;15.32;64.25
52927;BME280;40783;49.710;8.842;2023-03-19T11:25:53;98955.78;;;15.49;63.40
52927;BME280;40783;49.710;8.842;2023-03-19T11:28:22;98946.03;;;15.48;65.43
52927;BME280;40783;49.710;8.842;2023-03-19T11:33:39;98941.66;;;15.97;63.25
52927;BME280;40783;49.710;8.842;2023-03-19T11:54:04;98934.97;;;15.93;56.21
52927;BME280;40783;49.710;8.842;2023-03-19T11:59:08;98927.41;;;15.82;56.87
52927;BME280;40783;49.710;8.842;2023-03-19T12:07:01;98929.56;;;15.86;56.77
52927;BME280;40783;49.710;8.842;2023-03-19T12:09:36;98918.03;;;16.06;58.90
52927;BME280;40783;49.710;8.842;2023-03-19T12:14:40;98921.03;;;16.25;57.14
52927;BME280;40783;49.710;8.842;2023-03-19T12:17:19;98922.47;;;16.21;57.70
52927;BME280;40783;49.710;8.842;2023-03-19T12:20:12;98916.81;;;16.09;57.84
52927;BME280;40783;49.710;8.842;2023-03-19T12:22:58;98920.88;;;15.91;56.82
52927;BME280;40783;49.710;8.842;2023-03-19T12:31:07;98913.13;;;16.23;58.39
52927;BME280;40783;49.710;8.842;2023-03-19T12:36:02;98912.72;;;15.84;58.63
52927;BME280;40783;49.710;8.842;2023-03-19T12:38:42;98914.22;;;15.94;60.22
52927;BME280;40783;49.710;8.842;2023-03-19T12:41:12;98917.94;;;15.93;58.71
52927;BME280;40783;49.710;8.842;2023-03-19T12:43:47;98924.38;;;15.92;60.57
52927;BME280;40783;49.710;8.842;2023-03-19T12:46:16;98917.53;;;15.89;59.98
52927;BME280;40783;49.710;8.842;2023-03-19T12:48:50;98921.59;;;15.78;61.44
52927;BME280;40783;49.710;8.842;2023-03-19T12:51:18;98926.28;;;15.98;61.95
52927;BME280;40783;49.710;8.842;2023-03-19T12:53:49;98923.78;;;15.90;61.65
52927;BME280;40783;49.710;8.842;2023-03-19T12:59:00;98919.84;;;15.99;59.15
52927;BME280;40783;49.710;8.842;2023-03-19T13:01:29;98922.47;;;15.85;60.92
52927;BME280;40783;49.710;8.842;2023-03-19T13:06:38;98932.56;;;15.48;60.42
52927;BME280;40783;49.710;8.842;2023-03-19T13:11:38;98953.25;;;14.61;77.82
52927;BME280;40783;49.710;8.842;2023-03-19T13:14:16;98964.53;;;14.34;81.00
52927;BME280;40783;49.710;8.842;2023-03-19T13:16:49;98961.41;;;14.16;84.39
52927;BME280;40783;49.710;8.842;2023-03-19T13:19:20;98958.81;;;14.07;85.13
52927;BME280;40783;49.710;8.842;2023-03-19T13:21:50;98949.72;;;14.23;85.79
52927;BME280;40783;49.710;8.842;2023-03-19T13:26:54;98956.59;;;14.26;85.79
52927;BME280;40783;49.710;8.842;2023-03-19T13:29:21;98970.50;;;14.15;83.63
52927;BME280;40783;49.710;8.842;2023-03-19T13:31:47;98960.41;;;14.02;84.51
52927;BME280;40783;49.710;8.842;2023-03-19T13:36:41;98953.63;;;14.21;84.03
52927;BME280;40783;49.710;8.842;2023-03-19T13:39:14;98955.53;;;14.42;81.55
52927;BME280;40783;49.710;8.842;2023-03-19T13:41:49;98958.19;;;14.57;79.24
52927;BME280;40783;49.710;8.842;2023-03-19T13:46:42;98961.47;;;14.89;76.63
52927;BME280;40783;49.710;8.842;2023-03-19T13:51:43;98957.88;;;14.82;79.71
52927;BME280;40783;49.710;8.842;2023-03-19T13:59:26;98958.41;;;14.56;83.54
52927;BME280;40783;49.710;8.842;2023-03-19T14:01:52;98966.00;;;14.52;83.39
52927;BME280;40783;49.710;8.842;2023-03-19T14:06:52;98960.22;;;14.55;83.55
52927;BME280;40783;49.710;8.842;2023-03-19T14:12:09;98953.94;;;14.48;86.67
52927;BME280;40783;49.710;8.842;2023-03-19T14:14:44;98959.00;;;14.21;88.89
52927;BME280;40783;49.710;8.842;2023-03-19T14:17:14;98967.69;;;14.38;90.76
52927;BME280;40783;49.710;8.842;2023-03-19T14:19:42;98969.00;;;14.27;89.38
52927;BME280;40783;49.710;8.842;2023-03-19T14:22:09;98967.78;;;14.30;91.10
52927;BME280;40783;49.710;8.842;2023-03-19T14:24:35;98974.63;;;14.32;92.52
52927;BME280;40783;49.710;8.842;2023-03-19T14:27:11;98970.69;;;14.28;91.02
52927;BME280;40783;49.710;8.842;2023-03-19T14:29:40;98974.19;;;14.14;90.46
52927;BME280;40783;49.710;8.842;2023-03-19T14:32:07;98965.84;;;14.08;89.65
52927;BME280;40783;49.710;8.842;2023-03-19T14:34:38;98963.25;;;14.00;90.37
52927;BME280;40783;49.710;8.842;2023-03-19T14:39:58;98968.44;;;13.87;93.54
52927;BME280;40783;49.710;8.842;2023-03-19T14:42:27;98971.97;;;13.72;94.16